createdAt,value
2022-07-30T00:00:46.285Z,100581.00
2022-07-30T00:03:21.278Z,100573.00
2022-07-30T00:05:55.813Z,100577.00
2022-07-30T00:08:29.872Z,100575.00
2022-07-30T00:11:03.913Z,100576.00
2022-07-30T00:13:37.675Z,100581.00
2022-07-30T00:16:12.620Z,100578.00
2022-07-30T00:18:46.352Z,100569.00
2022-07-30T00:21:35.899Z,100562.00
2022-07-30T00:24:10.112Z,100556.00
2022-07-30T00:26:43.679Z,100571.00
2022-07-30T00:29:17.158Z,100575.00
2022-07-30T00:31:51.971Z,100541.00
2022-07-30T00:34:26.161Z,100561.00
2022-07-30T00:36:59.812Z,100560.00
2022-07-30T00:39:33.926Z,100560.00
2022-07-30T00:42:07.578Z,100571.00
2022-07-30T00:44:41.329Z,100571.00
2022-07-30T00:47:16.304Z,100565.00
2022-07-30T00:49:49.760Z,100562.00
2022-07-30T00:52:23.445Z,100558.00
2022-07-30T00:54:57.297Z,100558.00
2022-07-30T00:57:31.111Z,100566.00
2022-07-30T01:00:08.707Z,100562.00
2022-07-30T01:02:44.078Z,100554.00
2022-07-30T01:05:18.231Z,100562.00
2022-07-30T01:07:52.504Z,100568.00
2022-07-30T01:10:26.498Z,100575.00
2022-07-30T01:13:02.073Z,100566.00
2022-07-30T01:15:36.836Z,100562.00
2022-07-30T01:18:16.096Z,100544.00
2022-07-30T01:21:03.997Z,100562.00
2022-07-30T01:23:46.764Z,100564.00
2022-07-30T01:26:23.734Z,100555.00
2022-07-30T01:28:59.577Z,100560.00
2022-07-30T01:31:35.931Z,100555.00
2022-07-30T01:34:13.195Z,100556.00
2022-07-30T01:36:48.552Z,100549.00
2022-07-30T01:39:22.883Z,100555.00
2022-07-30T01:42:00.076Z,100553.00
2022-07-30T01:44:35.099Z,100551.00
2022-07-30T01:47:11.083Z,100547.00
2022-07-30T01:49:47.595Z,100555.00
2022-07-30T01:52:23.463Z,100552.00
2022-07-30T01:55:00.523Z,100549.00
2022-07-30T01:57:40.041Z,100549.00
2022-07-30T02:00:15.358Z,100553.00
2022-07-30T02:02:48.878Z,100550.00
2022-07-30T02:05:22.600Z,100558.00
2022-07-30T02:08:04.342Z,100560.00
2022-07-30T02:10:46.526Z,100563.00
2022-07-30T02:13:27.854Z,100564.00
2022-07-30T02:16:11.034Z,100560.00
2022-07-30T02:19:01.062Z,100571.00
2022-07-30T02:21:50.477Z,100574.00
2022-07-30T02:24:33.496Z,100575.00
2022-07-30T02:27:13.999Z,100575.00
2022-07-30T02:29:50.671Z,100574.00
2022-07-30T02:32:27.001Z,100575.00
2022-07-30T02:35:10.412Z,100571.00
2022-07-30T02:37:46.824Z,100580.00
2022-07-30T02:40:23.141Z,100580.00
2022-07-30T02:42:57.913Z,100587.00
2022-07-30T02:45:33.264Z,100582.00
2022-07-30T02:48:11.473Z,100589.00
2022-07-30T02:51:07.719Z,100588.00
2022-07-30T02:53:45.087Z,100589.00
2022-07-30T02:56:22.483Z,100583.00
2022-07-30T02:58:57.537Z,100580.00
2022-07-30T03:01:34.805Z,100561.00
2022-07-30T03:04:10.889Z,100574.00
2022-07-30T03:06:46.448Z,100578.00
2022-07-30T03:09:21.447Z,100573.00
2022-07-30T03:11:57.293Z,100569.00
2022-07-30T03:14:32.104Z,100561.00
2022-07-30T03:17:09.986Z,100570.00
2022-07-30T03:19:46.943Z,100581.00
2022-07-30T03:22:23.483Z,100593.00
2022-07-30T03:24:59.242Z,100589.00
2022-07-30T03:27:34.260Z,100591.00
2022-07-30T03:30:09.842Z,100595.00
2022-07-30T03:32:45.981Z,100599.00
2022-07-30T03:35:21.945Z,100595.00
2022-07-30T03:37:56.954Z,100587.00
2022-07-30T03:40:32.269Z,100597.00
2022-07-30T03:43:06.308Z,100592.00
2022-07-30T03:46:02.312Z,100608.00
2022-07-30T03:48:39.259Z,100611.00
2022-07-30T03:51:13.854Z,100611.00
2022-07-30T03:53:47.738Z,100602.00
2022-07-30T03:56:22.295Z,100608.00
2022-07-30T03:58:56.074Z,100608.00
2022-07-30T04:01:30.939Z,100604.00
2022-07-30T04:04:10.911Z,100599.00
2022-07-30T04:06:44.544Z,100603.00
2022-07-30T04:09:21.269Z,100613.00
2022-07-30T04:11:54.896Z,100608.00
2022-07-30T04:14:28.552Z,100566.00
2022-07-30T04:17:07.136Z,100606.00
2022-07-30T04:19:49.299Z,100608.00
2022-07-30T04:22:31.535Z,100621.00
2022-07-30T04:25:07.580Z,100607.00
2022-07-30T04:28:03.126Z,100621.00
2022-07-30T04:30:36.219Z,100617.00
2022-07-30T04:33:10.172Z,100632.00
2022-07-30T04:35:51.256Z,100628.00
2022-07-30T04:38:25.928Z,100624.00
2022-07-30T04:40:59.281Z,100633.00
2022-07-30T04:43:32.697Z,100626.00
2022-07-30T04:46:06.467Z,100634.00
2022-07-30T04:48:40.012Z,100635.00
2022-07-30T04:51:25.320Z,100638.00
2022-07-30T04:54:00.426Z,100646.00
2022-07-30T04:56:37.631Z,100656.00
2022-07-30T04:59:12.238Z,100650.00
2022-07-30T05:01:51.346Z,100648.00
2022-07-30T05:04:28.546Z,100655.00
2022-07-30T05:07:05.169Z,100660.00
2022-07-30T05:09:39.410Z,100652.00
2022-07-30T05:12:17.072Z,100661.00
2022-07-30T05:14:50.717Z,100661.00
2022-07-30T05:17:24.213Z,100669.00
2022-07-30T05:19:57.718Z,100674.00
2022-07-30T05:22:33.468Z,100672.00
2022-07-30T05:25:15.789Z,100665.00
2022-07-30T05:27:51.345Z,100676.00
2022-07-30T05:30:27.554Z,100673.00
2022-07-30T05:33:01.370Z,100680.00
2022-07-30T05:35:37.176Z,100681.00
2022-07-30T05:38:11.981Z,100680.00
2022-07-30T05:40:46.540Z,100683.00
2022-07-30T05:43:20.072Z,100683.00
2022-07-30T05:45:53.606Z,100685.00
2022-07-30T05:48:27.993Z,100687.00
2022-07-30T05:51:01.481Z,100687.00
2022-07-30T05:53:36.287Z,100680.00
2022-07-30T05:56:09.764Z,100685.00
2022-07-30T05:58:43.677Z,100674.00
2022-07-30T06:01:17.343Z,100676.00
2022-07-30T06:03:50.933Z,100689.00
2022-07-30T06:06:24.306Z,100687.00
2022-07-30T06:08:59.155Z,100688.00
2022-07-30T06:11:32.663Z,100697.00
2022-07-30T06:14:06.270Z,100691.00
2022-07-30T06:16:39.816Z,100707.00
2022-07-30T06:19:19.337Z,100699.00
2022-07-30T06:22:06.038Z,100702.00
2022-07-30T06:24:41.819Z,100705.00
2022-07-30T06:27:15.518Z,100700.00
2022-07-30T06:29:49.108Z,100704.00
2022-07-30T06:32:22.629Z,100699.00
2022-07-30T06:35:03.962Z,100707.00
2022-07-30T06:38:06.343Z,100718.00
2022-07-30T06:40:33.461Z,100723.00
2022-07-30T06:43:07.240Z,100721.00
2022-07-30T06:45:40.689Z,100720.00
2022-07-30T06:48:14.558Z,100724.00
2022-07-30T06:50:47.953Z,100735.00
2022-07-30T06:53:21.524Z,100726.00
2022-07-30T06:56:00.226Z,100713.00
2022-07-30T06:58:34.153Z,100729.00
2022-07-30T07:01:11.304Z,100726.00
2022-07-30T07:03:44.997Z,100737.00
2022-07-30T07:06:18.576Z,100735.00
2022-07-30T07:08:51.975Z,100737.00
2022-07-30T07:11:27.075Z,100731.00
2022-07-30T07:14:04.562Z,100736.00
2022-07-30T07:16:38.518Z,100739.00
2022-07-30T07:19:13.522Z,100740.00
2022-07-30T07:22:05.570Z,100733.00
2022-07-30T07:24:39.027Z,100732.00
2022-07-30T07:27:15.432Z,100748.00
2022-07-30T07:30:01.539Z,100744.00
2022-07-30T07:32:39.677Z,100740.00
2022-07-30T07:35:13.871Z,100744.00
2022-07-30T07:37:47.549Z,100746.00
2022-07-30T07:40:21.308Z,100749.00
2022-07-30T07:42:59.331Z,100753.00
2022-07-30T07:45:32.822Z,100758.00
2022-07-30T07:48:07.215Z,100751.00
2022-07-30T07:50:40.853Z,100753.00
2022-07-30T07:53:14.432Z,100751.00
2022-07-30T07:55:48.057Z,100749.00
2022-07-30T07:58:26.175Z,100746.00
2022-07-30T08:01:00.366Z,100756.00
2022-07-30T08:03:34.046Z,100745.00
2022-07-30T08:06:10.835Z,100749.00
2022-07-30T08:08:46.685Z,100749.00
2022-07-30T08:11:20.196Z,100753.00
2022-07-30T08:13:55.335Z,100747.00
2022-07-30T08:16:30.079Z,100758.00
2022-07-30T08:19:03.774Z,100754.00
2022-07-30T08:21:37.518Z,100756.00
2022-07-30T08:24:11.263Z,100762.00
2022-07-30T08:26:44.799Z,100759.00
2022-07-30T08:29:19.586Z,100766.00
2022-07-30T08:31:53.186Z,100755.00
2022-07-30T08:34:27.350Z,100754.00
2022-07-30T08:37:01.638Z,100757.00
2022-07-30T08:39:35.047Z,100756.00
2022-07-30T08:42:09.480Z,100753.00
2022-07-30T08:44:47.146Z,100751.00
2022-07-30T08:47:29.098Z,100756.00
2022-07-30T08:50:05.543Z,100758.00
2022-07-30T08:52:40.171Z,100759.00
2022-07-30T08:55:14.538Z,100766.00
2022-07-30T08:57:48.464Z,100758.00
2022-07-30T09:00:23.632Z,100748.00
2022-07-30T09:02:57.317Z,100766.00
2022-07-30T09:05:30.798Z,100764.00
2022-07-30T09:08:08.956Z,100769.00
2022-07-30T09:10:52.708Z,100767.00
2022-07-30T09:13:30.253Z,100759.00
2022-07-30T09:16:07.065Z,100763.00
2022-07-30T09:18:44.434Z,100759.00
2022-07-30T09:21:25.824Z,100764.00
2022-07-30T09:24:02.802Z,100759.00
2022-07-30T09:26:56.061Z,100764.00
2022-07-30T09:29:31.367Z,100772.00
2022-07-30T09:32:09.468Z,100765.00
2022-07-30T09:34:42.893Z,100774.00
2022-07-30T09:37:20.690Z,100768.00
2022-07-30T09:39:59.100Z,100764.00
2022-07-30T09:42:33.085Z,100763.00
2022-07-30T09:45:11.493Z,100755.00
2022-07-30T09:47:48.448Z,100756.00
2022-07-30T09:50:30.331Z,100752.00
2022-07-30T09:53:11.898Z,100759.00
2022-07-30T09:55:46.137Z,100760.00
2022-07-30T09:58:27.434Z,100761.00
2022-07-30T10:01:02.873Z,100762.00
2022-07-30T10:03:44.175Z,100758.00
2022-07-30T10:06:20.569Z,100761.00
2022-07-30T10:08:54.027Z,100766.00
2022-07-30T10:11:31.310Z,100761.00
2022-07-30T10:14:05.750Z,100749.00
2022-07-30T10:16:39.893Z,100770.00
2022-07-30T10:19:18.215Z,100767.00
2022-07-30T10:21:57.965Z,100761.00
2022-07-30T10:24:36.386Z,100764.00
2022-07-30T10:27:10.844Z,100763.00
2022-07-30T10:29:46.526Z,100765.00
2022-07-30T10:32:27.464Z,100769.00
2022-07-30T10:35:07.354Z,100769.00
2022-07-30T10:37:54.169Z,100764.00
2022-07-30T10:40:34.367Z,100769.00
2022-07-30T10:44:09.202Z,100760.00
2022-07-30T10:47:01.295Z,100774.00
2022-07-30T10:49:43.004Z,100774.00
2022-07-30T10:52:50.611Z,100776.00
2022-07-30T10:55:37.517Z,100771.00
2022-07-30T10:58:15.641Z,100766.00
2022-07-30T11:01:01.666Z,100768.00
2022-07-30T11:03:40.335Z,100777.00
2022-07-30T11:06:30.374Z,100767.00
2022-07-30T11:09:41.065Z,100769.00
2022-07-30T11:12:16.556Z,100769.00
2022-07-30T11:15:07.279Z,100765.00
2022-07-30T11:18:11.425Z,100761.00
2022-07-30T11:21:21.269Z,100760.00
2022-07-30T11:23:56.735Z,100765.00
2022-07-30T11:26:53.781Z,100765.00
2022-07-30T11:29:51.369Z,100763.00
2022-07-30T11:32:31.310Z,100748.00
2022-07-30T11:35:25.203Z,100752.00
2022-07-30T11:38:06.978Z,100752.00
2022-07-30T11:41:11.246Z,100758.00
2022-07-30T11:43:46.304Z,100742.00
2022-07-30T11:46:28.934Z,100748.00
2022-07-30T11:49:08.741Z,100749.00
2022-07-30T11:51:44.073Z,100754.00
2022-07-30T11:54:18.761Z,100745.00
2022-07-30T11:56:55.402Z,100750.00
2022-07-30T11:59:30.317Z,100744.00
2022-07-30T12:02:04.508Z,100740.00
2022-07-30T12:04:45.082Z,100749.00
2022-07-30T12:07:24.128Z,100757.00
2022-07-30T12:10:16.673Z,100757.00
2022-07-30T12:13:10.063Z,100757.00
2022-07-30T12:15:47.947Z,100757.00
2022-07-30T12:18:30.315Z,100758.00
2022-07-30T12:21:08.194Z,100761.00
2022-07-30T12:23:43.572Z,100758.00
2022-07-30T12:26:24.660Z,100748.00
2022-07-30T12:29:06.623Z,100752.00
2022-07-30T12:31:42.894Z,100752.00
2022-07-30T12:34:23.507Z,100746.00
2022-07-30T12:37:07.825Z,100746.00
2022-07-30T12:39:41.600Z,100741.00
2022-07-30T12:42:20.041Z,100743.00
2022-07-30T12:44:53.512Z,100742.00
2022-07-30T12:47:30.739Z,100742.00
2022-07-30T12:50:18.058Z,100746.00
2022-07-30T12:52:53.512Z,100736.00
2022-07-30T12:55:35.172Z,100740.00
2022-07-30T12:58:09.320Z,100750.00
2022-07-30T13:00:52.769Z,100739.00
2022-07-30T13:03:39.197Z,100745.00
2022-07-30T13:06:19.229Z,100736.00
2022-07-30T13:08:56.331Z,100742.00
2022-07-30T13:11:40.866Z,100743.00
2022-07-30T13:14:17.061Z,100749.00
2022-07-30T13:16:50.802Z,100743.00
2022-07-30T13:19:26.880Z,100728.00
2022-07-30T13:22:00.209Z,100748.00
2022-07-30T13:24:34.153Z,100740.00
2022-07-30T13:27:08.045Z,100751.00
2022-07-30T13:29:41.594Z,100746.00
2022-07-30T13:32:15.118Z,100750.00
2022-07-30T13:34:49.920Z,100747.00
2022-07-30T13:37:23.752Z,100753.00
2022-07-30T13:40:16.643Z,100754.00
2022-07-30T13:42:52.297Z,100756.00
2022-07-30T13:45:25.913Z,100749.00
2022-07-30T13:47:59.566Z,100751.00
2022-07-30T13:50:36.433Z,100749.00
2022-07-30T13:53:10.611Z,100750.00
2022-07-30T13:55:45.724Z,100732.00
2022-07-30T13:58:19.212Z,100751.00
2022-07-30T14:00:56.585Z,100736.00
2022-07-30T14:03:30.041Z,100749.00
2022-07-30T14:06:10.938Z,100743.00
2022-07-30T14:08:44.924Z,100742.00
2022-07-30T14:11:18.818Z,100745.00
2022-07-30T14:13:52.492Z,100735.00
2022-07-30T14:16:44.270Z,100730.00
2022-07-30T14:19:23.983Z,100726.00
2022-07-30T14:21:59.394Z,100722.00
2022-07-30T14:24:33.279Z,100726.00
2022-07-30T14:27:07.049Z,100723.00
2022-07-30T14:29:40.509Z,100715.00
2022-07-30T14:32:13.982Z,100727.00
2022-07-30T14:34:49.451Z,100727.00
2022-07-30T14:37:25.044Z,100702.00
2022-07-30T14:39:58.703Z,100730.00
2022-07-30T14:42:32.295Z,100713.00
2022-07-30T14:45:07.001Z,100713.00
2022-07-30T14:47:40.646Z,100710.00
2022-07-30T14:50:14.399Z,100720.00
2022-07-30T14:52:49.563Z,100716.00
2022-07-30T14:55:23.266Z,100715.00
2022-07-30T14:57:56.748Z,100718.00
2022-07-30T15:00:35.561Z,100709.00
2022-07-30T15:03:22.240Z,100715.00
2022-07-30T15:05:58.521Z,100720.00
2022-07-30T15:08:33.362Z,100718.00
2022-07-30T15:11:08.049Z,100721.00
2022-07-30T15:13:50.623Z,100722.00
2022-07-30T15:16:24.819Z,100706.00
2022-07-30T15:18:58.258Z,100723.00
2022-07-30T15:21:31.780Z,100717.00
2022-07-30T15:24:07.408Z,100714.00
2022-07-30T15:26:40.912Z,100706.00
2022-07-30T15:29:17.371Z,100719.00
2022-07-30T15:31:50.837Z,100708.00
2022-07-30T15:34:24.399Z,100710.00
2022-07-30T15:36:58.078Z,100693.00
2022-07-30T15:39:33.579Z,100701.00
2022-07-30T15:42:07.471Z,100708.00
2022-07-30T15:44:48.415Z,100706.00
2022-07-30T15:47:23.155Z,100714.00
2022-07-30T15:49:56.658Z,100708.00
2022-07-30T15:52:30.291Z,100717.00
2022-07-30T15:55:05.562Z,100715.00
2022-07-30T15:57:39.071Z,100713.00
2022-07-30T16:00:13.781Z,100721.00
2022-07-30T16:02:47.502Z,100703.00
2022-07-30T16:05:20.961Z,100711.00
2022-07-30T16:07:54.455Z,100714.00
2022-07-30T16:10:32.873Z,100690.00
2022-07-30T16:13:08.423Z,100716.00
2022-07-30T16:15:41.914Z,100709.00
2022-07-30T16:18:15.332Z,100715.00
2022-07-30T16:20:49.310Z,100689.00
2022-07-30T16:23:22.731Z,100720.00
2022-07-30T16:25:57.499Z,100713.00
2022-07-30T16:28:30.921Z,100711.00
2022-07-30T16:31:05.390Z,100705.00
2022-07-30T16:33:38.964Z,100713.00
2022-07-30T16:36:14.251Z,100710.00
2022-07-30T16:38:47.772Z,100710.00
2022-07-30T16:41:22.725Z,100708.00
2022-07-30T16:43:56.289Z,100708.00
2022-07-30T16:46:29.784Z,100704.00
2022-07-30T16:49:03.523Z,100695.00
2022-07-30T16:51:37.619Z,100707.00
2022-07-30T16:54:11.619Z,100715.00
2022-07-30T16:56:46.563Z,100710.00
2022-07-30T16:59:23.165Z,100717.00
2022-07-30T17:01:56.895Z,100709.00
2022-07-30T17:04:30.691Z,100710.00
2022-07-30T17:07:04.240Z,100710.00
2022-07-30T17:09:37.690Z,100712.00
2022-07-30T17:12:12.696Z,100714.00
2022-07-30T17:14:46.850Z,100708.00
2022-07-30T17:17:20.312Z,100709.00
2022-07-30T17:19:54.975Z,100702.00
2022-07-30T17:22:28.891Z,100695.00
2022-07-30T17:25:02.439Z,100712.00
2022-07-30T17:27:37.479Z,100701.00
2022-07-30T17:30:12.521Z,100714.00
2022-07-30T17:32:46.277Z,100707.00
2022-07-30T17:35:22.946Z,100715.00
2022-07-30T17:37:56.351Z,100705.00
2022-07-30T17:40:31.880Z,100715.00
2022-07-30T17:43:07.826Z,100718.00
2022-07-30T17:45:42.347Z,100721.00
2022-07-30T17:48:15.836Z,100715.00
2022-07-30T17:50:49.658Z,100723.00
2022-07-30T17:53:23.352Z,100723.00
2022-07-30T17:55:57.693Z,100718.00
2022-07-30T17:58:33.390Z,100723.00
2022-07-30T18:01:06.958Z,100725.00
2022-07-30T18:03:45.113Z,100733.00
2022-07-30T18:06:18.662Z,100740.00
2022-07-30T18:08:53.122Z,100735.00
2022-07-30T18:11:26.602Z,100720.00
2022-07-30T18:14:09.279Z,100744.00
2022-07-30T18:16:43.101Z,100735.00
2022-07-30T18:19:22.904Z,100743.00
2022-07-30T18:22:03.008Z,100745.00
2022-07-30T18:24:40.013Z,100742.00
2022-07-30T18:27:14.324Z,100743.00
2022-07-30T18:29:49.073Z,100748.00
2022-07-30T18:32:23.513Z,100745.00
2022-07-30T18:34:56.913Z,100748.00
2022-07-30T18:37:41.226Z,100736.00
2022-07-30T18:40:23.787Z,100749.00
2022-07-30T18:42:58.074Z,100744.00
2022-07-30T18:45:36.980Z,100746.00
2022-07-30T18:48:10.675Z,100756.00
2022-07-30T18:50:44.018Z,100755.00
2022-07-30T18:53:17.744Z,100748.00
2022-07-30T18:55:51.204Z,100758.00
2022-07-30T18:58:24.939Z,100756.00
2022-07-30T19:01:00.381Z,100755.00
2022-07-30T19:03:34.844Z,100752.00
2022-07-30T19:06:08.302Z,100752.00
2022-07-30T19:08:41.943Z,100753.00
2022-07-30T19:11:15.530Z,100750.00
2022-07-30T19:13:49.268Z,100751.00
2022-07-30T19:16:24.050Z,100746.00
2022-07-30T19:18:57.506Z,100751.00
2022-07-30T19:21:31.821Z,100750.00
2022-07-30T19:24:06.717Z,100745.00
2022-07-30T19:26:41.398Z,100755.00
2022-07-30T19:29:14.959Z,100745.00
2022-07-30T19:31:50.149Z,100753.00
2022-07-30T19:34:23.938Z,100753.00
2022-07-30T19:36:57.339Z,100766.00
2022-07-30T19:39:30.948Z,100757.00
2022-07-30T19:42:09.811Z,100765.00
2022-07-30T19:44:43.768Z,100759.00
2022-07-30T19:47:20.367Z,100763.00
2022-07-30T19:49:58.941Z,100777.00
2022-07-30T19:52:33.656Z,100768.00
2022-07-30T19:55:17.093Z,100777.00
2022-07-30T19:58:02.435Z,100775.00
2022-07-30T20:00:37.919Z,100769.00
2022-07-30T20:03:15.526Z,100783.00
2022-07-30T20:05:57.367Z,100782.00
2022-07-30T20:08:32.981Z,100778.00
2022-07-30T20:11:08.315Z,100775.00
2022-07-30T20:13:44.826Z,100775.00
2022-07-30T20:16:19.784Z,100773.00
2022-07-30T20:18:54.571Z,100779.00
2022-07-30T20:21:56.967Z,100762.00
2022-07-30T20:24:21.508Z,100778.00
2022-07-30T20:26:54.885Z,100778.00
2022-07-30T20:29:28.649Z,100776.00
2022-07-30T20:32:03.181Z,100778.00
2022-07-30T20:34:38.887Z,100780.00
2022-07-30T20:37:22.260Z,100794.00
2022-07-30T20:39:56.231Z,100779.00
2022-07-30T20:42:29.844Z,100788.00
2022-07-30T20:45:03.527Z,100793.00
2022-07-30T20:47:38.884Z,100805.00
2022-07-30T20:50:14.697Z,100798.00
2022-07-30T20:52:48.270Z,100783.00
2022-07-30T20:55:22.121Z,100797.00
2022-07-30T20:58:12.746Z,100799.00
2022-07-30T21:00:50.863Z,100802.00
2022-07-30T21:03:25.849Z,100795.00
2022-07-30T21:06:06.282Z,100793.00
2022-07-30T21:08:40.181Z,100797.00
2022-07-30T21:11:14.582Z,100796.00
2022-07-30T21:13:48.204Z,100780.00
2022-07-30T21:16:23.639Z,100797.00
2022-07-30T21:18:57.120Z,100791.00
2022-07-30T21:21:41.714Z,100796.00
2022-07-30T21:24:18.880Z,100787.00
2022-07-30T21:26:54.345Z,100784.00
2022-07-30T21:29:28.862Z,100785.00
2022-07-30T21:32:03.451Z,100773.00
2022-07-30T21:34:40.515Z,100768.00
2022-07-30T21:37:18.986Z,100778.00
2022-07-30T21:39:53.044Z,100784.00
2022-07-30T21:45:20.924Z,100773.00
2022-07-30T21:47:54.308Z,100765.00
2022-07-30T21:50:28.018Z,100762.00
2022-07-30T21:53:04.160Z,100766.00
2022-07-30T21:55:39.258Z,100767.00
2022-07-30T21:58:26.695Z,100752.00
2022-07-30T22:01:16.380Z,100762.00
2022-07-30T22:04:03.195Z,100763.00
2022-07-30T22:06:43.289Z,100763.00
2022-07-30T22:09:33.466Z,100757.00
2022-07-30T22:12:10.014Z,100754.00
2022-07-30T22:14:47.002Z,100754.00
2022-07-30T22:17:36.899Z,100761.00
2022-07-30T22:20:17.764Z,100772.00
2022-07-30T22:22:55.255Z,100772.00
2022-07-30T22:25:39.850Z,100766.00
2022-07-30T22:28:19.737Z,100765.00
2022-07-30T22:30:53.910Z,100768.00
2022-07-30T22:33:30.201Z,100772.00
2022-07-30T22:36:04.882Z,100768.00
2022-07-30T22:38:43.228Z,100760.00
2022-07-30T22:41:33.721Z,100753.00
2022-07-30T22:44:10.226Z,100752.00
2022-07-30T22:46:46.490Z,100747.00
2022-07-30T22:49:46.570Z,100751.00
2022-07-30T22:52:28.695Z,100746.00
2022-07-30T22:55:09.040Z,100741.00
2022-07-30T22:57:46.693Z,100744.00
2022-07-30T23:00:28.262Z,100740.00
2022-07-30T23:03:03.260Z,100733.00
2022-07-30T23:05:41.069Z,100742.00
2022-07-30T23:08:29.819Z,100740.00
2022-07-30T23:11:04.109Z,100741.00
2022-07-30T23:12:31.388Z,100758.00
2022-07-30T23:13:39.397Z,100741.00
2022-07-30T23:16:12.839Z,100737.00
2022-07-30T23:18:46.463Z,100748.00
2022-07-30T23:21:19.854Z,100720.00
2022-07-30T23:23:53.367Z,100747.00
2022-07-30T23:26:26.975Z,100742.00
2022-07-30T23:29:03.122Z,100739.00
2022-07-30T23:31:36.516Z,100742.00
2022-07-30T23:34:09.848Z,100739.00
2022-07-30T23:36:43.312Z,100731.00
2022-07-30T23:39:16.859Z,100723.00
2022-07-30T23:41:50.300Z,100727.00
2022-07-30T23:44:25.193Z,100719.00
2022-07-30T23:46:58.962Z,100727.00
2022-07-30T23:49:32.861Z,100721.00
2022-07-30T23:52:06.769Z,100712.00
2022-07-30T23:54:40.136Z,100706.00
2022-07-30T23:57:14.030Z,100707.00
2022-07-30T23:59:48.721Z,100713.00
